Terminal Aerodrome Forecast
Issued by NWS Albuquerque, NM

Home | Current Version | Previous Version | Text Only | Print | Product List | Glossary On
Versions: 1 2 3 4 5 6 7 8 9 10 11 12 13 14 15
984
FTUS45 KABQ 262101 AAB
TAFABQ
TAF AMD
KABQ 262101Z 2621/2718 12011KT P6SM VCSH SCT040 BKN100
      TEMPO 2621/2701 VRB20G35KT 6SM -TSRA SCT020 BKN040CB
     FM270100 09022G35KT P6SM -SHRA SCT030 BKN060
     FM270600 09029G43KT 6SM -SHRA SCT008 BKN035
     FM271400 09020G30KT 6SM -RA SCT004 BKN008=

USA.gov is the U.S. government's official web portal to all federal, state and local government web resources and services.